Time;durP1;ratioP1;P1;durP2;ratioP2;P2;SDS_P1;SDS_P2;PMS_P1;PMS_P2;Temp;Humidity;BMP_temperature;BMP_pressure;BME280_temperature;BME280_humidity;BME280_pressure;Samples;Min_cycle;Max_cycle;Signal;HPM_P1;HPM_P2
2021/11/05 00:02:17;;;;;;;87.38;18.50;;;;;;;6.63;87.45;100436.38;4940690;28;20058;-75
2021/11/05 00:04:43;;;;;;;83.07;19.00;;;;;;;6.71;87.08;100414.13;4973567;28;20042;-81
2021/11/05 00:07:09;;;;;;;95.22;18.95;;;;;;;6.73;87.13;100417.50;4940012;28;20502;-79
2021/11/05 00:09:35;;;;;;;104.28;19.58;;;;;;;6.73;87.36;100406.97;4955820;28;20039;-76
2021/11/05 00:12:01;;;;;;;118.40;19.52;;;;;;;6.74;87.30;100395.53;4972725;28;20500;-74
2021/11/05 00:14:28;;;;;;;129.20;21.80;;;;;;;6.80;87.30;100400.50;4942421;29;20039;-76
2021/11/05 00:16:55;;;;;;;121.38;18.92;;;;;;;6.85;87.62;100402.91;4955042;29;20039;-76
2021/11/05 00:19:20;;;;;;;96.75;19.73;;;;;;;6.88;87.13;100392.22;4937997;29;20087;-78
2021/11/05 00:21:46;;;;;;;100.80;20.08;;;;;;;6.91;87.59;100398.19;4954223;29;20074;-76
2021/11/05 00:24:12;;;;;;;117.25;19.58;;;;;;;6.87;87.34;100396.66;4967800;28;20055;-79
2021/11/05 00:26:38;;;;;;;146.57;22.95;;;;;;;6.89;87.67;100393.94;4973917;28;20042;-74
2021/11/05 00:29:03;;;;;;;181.10;24.42;;;;;;;6.90;87.34;100391.25;4964746;28;20062;-77
2021/11/05 00:31:29;;;;;;;157.65;25.17;;;;;;;6.95;87.58;100389.22;4939057;29;20114;-78
2021/11/05 00:33:55;;;;;;;151.13;24.65;;;;;;;6.97;87.74;100400.50;4971798;28;20444;-75
2021/11/05 00:36:21;;;;;;;211.27;29.83;;;;;;;7.00;87.76;100393.41;4972695;28;20046;-75
2021/11/05 00:38:47;;;;;;;217.70;32.90;;;;;;;7.01;87.60;100397.75;4971796;28;20057;-79
2021/11/05 00:41:15;;;;;;;226.15;34.50;;;;;;;7.05;87.59;100394.00;4939672;28;20046;-78
2021/11/05 00:43:41;;;;;;;209.07;31.70;;;;;;;7.06;87.52;100391.28;4955034;28;20066;-78
2021/11/05 00:46:07;;;;;;;129.07;24.98;;;;;;;7.09;87.71;100395.56;4954840;28;20063;-84
2021/11/05 00:48:33;;;;;;;143.20;27.83;;;;;;;7.13;87.84;100391.84;4895844;28;20134;-77
2021/11/05 00:50:59;;;;;;;136.05;27.77;;;;;;;7.18;87.84;100388.97;4951838;28;20162;-79
2021/11/05 00:53:26;;;;;;;116.35;23.55;;;;;;;7.20;88.08;100389.75;4953244;29;20116;-77
2021/11/05 00:55:51;;;;;;;100.57;21.60;;;;;;;7.21;88.04;100392.28;4936053;29;20139;-76
2021/11/05 00:58:17;;;;;;;106.82;22.13;;;;;;;7.22;88.35;100398.44;4953462;28;20117;-77
2021/11/05 01:00:43;;;;;;;95.90;23.08;;;;;;;7.21;88.62;100387.03;4953308;29;20117;-78
2021/11/05 01:03:09;;;;;;;100.55;23.38;;;;;;;7.22;88.39;100391.38;4952933;28;20118;-81
2021/11/05 01:05:36;;;;;;;95.72;23.27;;;;;;;7.24;88.47;100392.16;4952980;29;20632;-77
2021/11/05 01:08:03;;;;;;;89.18;20.58;;;;;;;7.32;89.10;100383.00;4952674;29;20039;-75
2021/11/05 01:10:29;;;;;;;90.88;21.17;;;;;;;7.38;88.90;100385.31;4953127;29;20074;-76
2021/11/05 01:12:54;;;;;;;92.75;20.15;;;;;;;7.37;88.68;100378.34;4963953;28;20042;-74
2021/11/05 01:15:20;;;;;;;103.38;22.30;;;;;;;7.45;88.46;100368.25;4972380;28;20043;-75
2021/11/05 01:17:46;;;;;;;93.72;21.40;;;;;;;7.48;88.83;100360.22;4971715;28;20058;-76
2021/11/05 01:20:15;;;;;;;89.95;21.20;;;;;;;7.59;88.50;100362.28;4972032;28;20047;-78
2021/11/05 01:22:42;;;;;;;100.78;23.17;;;;;;;7.64;88.54;100338.31;4955154;28;20049;-79
2021/11/05 01:25:08;;;;;;;103.20;24.38;;;;;;;7.66;88.24;100320.66;4972218;28;20067;-79
2021/11/05 01:27:34;;;;;;;97.80;22.95;;;;;;;7.68;88.12;100308.28;4970203;28;20496;-77
2021/11/05 01:29:59;;;;;;;99.57;24.45;;;;;;;7.67;88.23;100311.84;4955405;28;20050;-79
2021/11/05 01:32:27;;;;;;;105.50;22.80;;;;;;;7.74;88.39;100323.75;4964719;28;20047;-77
2021/11/05 01:34:55;;;;;;;108.65;24.75;;;;;;;7.75;88.08;100326.28;4972381;28;20047;-76
2021/11/05 01:37:21;;;;;;;102.63;24.55;;;;;;;7.78;88.70;100320.00;4971847;28;20049;-80
2021/11/05 01:39:47;;;;;;;90.88;23.17;;;;;;;7.82;88.41;100318.88;4971914;28;20155;-77
2021/11/05 01:42:13;;;;;;;102.63;23.13;;;;;;;7.88;88.39;100331.72;4971526;28;20125;-78
2021/11/05 01:44:39;;;;;;;95.80;22.60;;;;;;;7.83;88.12;100343.47;4972214;28;20563;-77
2021/11/05 01:47:05;;;;;;;106.35;25.00;;;;;;;7.84;88.25;100345.13;4972030;28;20146;-76
2021/11/05 01:49:31;;;;;;;92.88;21.98;;;;;;;7.87;88.31;100335.28;4974857;28;20046;-78
2021/11/05 01:51:57;;;;;;;103.88;23.75;;;;;;;7.84;88.65;100335.47;4971700;28;20130;-80
2021/11/05 01:54:24;;;;;;;84.88;20.65;;;;;;;7.85;88.30;100334.53;4956727;29;20531;-78
2021/11/05 01:56:50;;;;;;;79.43;23.23;;;;;;;7.89;88.55;100330.78;4934704;28;20042;-78
2021/11/05 01:59:27;;;;;;;98.15;21.92;;;;;;;8.01;88.29;100331.03;4976373;28;20058;-77
2021/11/05 02:02:20;;;;;;;95.75;22.55;;;;;;;8.11;88.09;100326.94;4960751;28;20695;-78
2021/11/05 02:04:46;;;;;;;80.65;21.08;;;;;;;8.11;87.78;100326.94;4956801;28;20125;-78
2021/11/05 02:07:13;;;;;;;91.82;21.90;;;;;;;8.13;87.80;100324.25;4940000;29;20047;-76
2021/11/05 02:09:40;;;;;;;84.72;23.00;;;;;;;8.18;87.72;100327.47;4961191;28;20480;-83
2021/11/05 02:12:07;;;;;;;85.63;22.00;;;;;;;8.16;87.41;100329.31;4943477;28;20078;-77
2021/11/05 02:14:33;;;;;;;86.10;22.45;;;;;;;8.13;87.59;100325.09;4975057;28;20042;-75
2021/11/05 02:17:01;;;;;;;91.72;22.83;;;;;;;8.15;87.87;100317.94;4974783;28;20074;-78
2021/11/05 02:19:31;;;;;;;90.95;22.00;;;;;;;8.12;87.96;100320.75;4974917;28;20124;-78
2021/11/05 02:21:57;;;;;;;;;;;;;;;8.12;87.84;100312.84;4975325;28;20104;-77
2021/11/05 02:24:24;;;;;;;100.53;23.15;;;;;;;8.10;88.01;100312.09;4971985;28;20012;-76
2021/11/05 02:26:52;;;;;;;108.72;23.85;;;;;;;8.15;88.18;100314.44;4938375;29;20499;-78
2021/11/05 02:29:18;;;;;;;89.28;23.30;;;;;;;8.17;88.06;100315.22;4938715;29;20067;-81
2021/11/05 02:31:44;;;;;;;96.88;21.90;;;;;;;8.18;88.26;100315.13;4922247;29;20497;-74
2021/11/05 02:34:10;;;;;;;95.18;22.83;;;;;;;8.22;88.23;100306.13;4954757;29;20481;-79
2021/11/05 02:36:36;;;;;;;93.88;24.23;;;;;;;8.23;88.21;100306.97;4956945;28;20189;-78
2021/11/05 02:39:07;;;;;;;99.78;22.88;;;;;;;8.22;88.19;100306.13;4974403;28;20480;-77
2021/11/05 02:41:39;;;;;;;102.85;23.15;;;;;;;8.25;87.98;100290.13;4950822;29;20054;-78
2021/11/05 02:44:05;;;;;;;112.97;23.13;;;;;;;8.33;88.14;100273.03;4955423;29;20047;-76
2021/11/05 02:46:31;;;;;;;107.88;21.73;;;;;;;8.33;88.11;100267.75;4955254;29;20050;-78
2021/11/05 02:48:58;;;;;;;91.07;22.65;;;;;;;8.29;88.35;100266.22;4937857;29;20126;-78
2021/11/05 02:51:24;;;;;;;88.63;22.02;;;;;;;8.39;88.21;100264.78;4955968;28;20039;-76
2021/11/05 02:53:50;;;;;;;83.45;21.75;;;;;;;8.41;88.38;100261.09;4958436;28;20054;-76
2021/11/05 02:56:16;;;;;;;97.90;24.38;;;;;;;8.37;88.13;100258.72;4972952;28;20054;-77
2021/11/05 02:58:42;;;;;;;93.43;23.85;;;;;;;8.40;88.42;100248.03;4968154;28;20093;-77
2021/11/05 03:01:08;;;;;;;92.53;21.38;;;;;;;8.47;88.39;100243.25;4921376;29;20047;-78
2021/11/05 03:03:34;;;;;;;93.05;22.33;;;;;;;8.48;88.33;100245.78;4955046;29;20046;-82
2021/11/05 03:05:59;;;;;;;96.20;21.60;;;;;;;8.45;88.54;100248.59;4954895;29;20050;-78
2021/11/05 03:08:25;;;;;;;95.32;22.70;;;;;;;8.46;88.33;100242.44;4955279;29;20472;-78
2021/11/05 03:10:51;;;;;;;90.38;22.90;;;;;;;8.46;88.49;100237.16;4950532;28;20042;-77
2021/11/05 03:13:18;;;;;;;108.78;25.13;;;;;;;8.48;88.66;100237.06;4974114;28;20070;-78
2021/11/05 03:15:44;;;;;;;103.82;24.50;;;;;;;8.56;88.53;100238.28;4972841;28;20046;-76
2021/11/05 03:18:10;;;;;;;94.88;22.88;;;;;;;8.60;88.42;100241.59;4963217;28;20051;-78
2021/11/05 03:20:35;;;;;;;96.90;23.33;;;;;;;8.63;88.33;100232.66;4954150;28;20063;-77
2021/11/05 03:23:01;;;;;;;98.97;23.70;;;;;;;8.66;88.18;100227.19;4954473;28;20098;-78
2021/11/05 03:25:27;;;;;;;89.97;21.60;;;;;;;8.64;88.28;100237.81;4918857;29;20060;-80
2021/11/05 03:27:53;;;;;;;182.20;51.90;;;;;;;8.65;88.18;100239.53;4935091;29;20051;-78
2021/11/05 03:30:19;;;;;;;91.85;21.77;;;;;;;8.66;88.62;100238.59;4949166;28;20038;-78
2021/11/05 03:32:45;;;;;;;99.53;25.10;;;;;;;8.69;88.30;100248.09;4966252;28;20527;-78
2021/11/05 03:35:12;;;;;;;102.25;25.15;;;;;;;8.71;88.27;100219.84;4973253;28;20066;-80
2021/11/05 03:37:40;;;;;;;111.65;24.40;;;;;;;8.74;88.25;100230.22;4973498;28;20050;-76
2021/11/05 03:40:09;;;;;;;91.53;20.80;;;;;;;8.78;88.33;100229.06;4972651;28;20105;-78
2021/11/05 03:42:35;;;;;;;101.82;24.77;;;;;;;8.80;88.26;100224.56;4973188;28;20039;-81
2021/11/05 03:45:01;;;;;;;107.05;24.33;;;;;;;8.84;88.19;100209.41;4973574;28;20042;-77
2021/11/05 03:47:28;;;;;;;100.63;25.02;;;;;;;8.88;87.62;100206.50;4973458;28;20043;-77
2021/11/05 03:49:54;;;;;;;98.07;24.33;;;;;;;8.89;87.85;100196.78;4962541;28;20047;-79
2021/11/05 03:52:20;;;;;;;96.93;24.00;;;;;;;8.94;87.70;100199.97;4964955;28;20101;-76
2021/11/05 03:54:46;;;;;;;103.05;24.77;;;;;;;8.91;87.70;100197.53;4972800;28;20039;-77
2021/11/05 03:57:12;;;;;;;96.13;24.17;;;;;;;8.93;87.64;100197.44;4973406;28;20051;-78
2021/11/05 03:59:37;;;;;;;98.00;24.48;;;;;;;8.98;87.59;100198.00;4973925;28;20463;-78
2021/11/05 04:02:04;;;;;;;109.32;26.55;;;;;;;9.01;87.55;100200.44;4974019;28;20046;-81
2021/11/05 04:04:29;;;;;;;99.57;25.55;;;;;;;9.05;87.42;100201.97;4956686;28;20038;-79
2021/11/05 04:06:55;;;;;;;92.28;24.63;;;;;;;9.07;87.16;100210.59;4973413;28;20038;-76
2021/11/05 04:09:21;;;;;;;91.38;22.85;;;;;;;9.13;87.30;100204.94;4960750;28;20070;-78
2021/11/05 04:11:47;;;;;;;101.78;25.10;;;;;;;9.10;86.91;100199.88;4952646;28;20050;-78
2021/11/05 04:14:13;;;;;;;97.20;24.23;;;;;;;9.14;86.98;100197.91;4954024;29;20109;-81
2021/11/05 04:16:39;;;;;;;83.97;23.33;;;;;;;9.07;86.88;100179.81;4921699;29;20082;-79
2021/11/05 04:19:05;;;;;;;99.25;26.45;;;;;;;9.11;86.80;100172.56;4954378;29;20047;-76
2021/11/05 04:21:32;;;;;;;100.88;25.65;;;;;;;9.20;86.59;100184.31;4952995;28;20043;-75
2021/11/05 04:23:58;;;;;;;105.13;26.50;;;;;;;9.18;86.36;100187.06;4968377;28;20509;-79
2021/11/05 04:26:24;;;;;;;93.07;24.88;;;;;;;9.19;86.37;100172.88;4972531;28;20046;-78
2021/11/05 04:28:50;;;;;;;107.85;27.10;;;;;;;9.19;86.35;100157.06;4972680;28;20062;-78
2021/11/05 04:31:17;;;;;;;93.78;25.10;;;;;;;9.22;86.46;100159.53;4952596;28;20043;-79
2021/11/05 04:33:43;;;;;;;94.43;26.92;;;;;;;9.26;85.99;100157.53;4937709;28;20043;-78
2021/11/05 04:36:09;;;;;;;98.55;24.42;;;;;;;9.27;85.96;100158.38;4956017;28;20042;-81
2021/11/05 04:38:35;;;;;;;91.85;25.05;;;;;;;9.23;86.10;100158.59;4955267;28;20039;-80
2021/11/05 04:41:00;;;;;;;97.75;26.17;;;;;;;9.22;85.87;100159.53;4955793;28;20393;-76
2021/11/05 04:43:26;;;;;;;105.63;26.60;;;;;;;9.18;85.87;100155.38;4955610;28;20054;-79
2021/11/05 04:45:55;;;;;;;87.20;25.30;;;;;;;9.28;85.84;100157.44;4972211;28;20182;-77
2021/11/05 04:48:21;;;;;;;93.68;27.13;;;;;;;9.28;85.73;100145.06;4971793;28;20069;-79
2021/11/05 04:50:50;;;;;;;96.07;26.60;;;;;;;9.26;85.79;100156.66;4972520;28;20046;-76
2021/11/05 04:53:16;;;;;;;87.20;24.38;;;;;;;9.32;85.54;100154.50;4952974;28;20047;-77
2021/11/05 04:55:42;;;;;;;87.55;24.23;;;;;;;9.26;85.52;100152.25;4953574;28;20501;-79
2021/11/05 04:58:08;;;;;;;91.18;24.75;;;;;;;9.25;85.37;100149.72;4952932;28;20182;-78
2021/11/05 05:00:35;;;;;;;87.93;26.55;;;;;;;9.29;85.37;100152.03;4955255;28;20110;-80
2021/11/05 05:03:00;;;;;;;90.63;25.63;;;;;;;9.34;85.16;100143.84;4920168;29;20043;-79
2021/11/05 05:05:27;;;;;;;96.13;26.65;;;;;;;9.30;84.86;100145.00;4936082;29;20039;-76
2021/11/05 05:07:53;;;;;;;90.97;27.05;;;;;;;9.23;85.01;100134.81;4934051;29;20063;-76
2021/11/05 05:10:20;;;;;;;87.95;24.92;;;;;;;9.18;85.29;100136.91;4953791;29;20105;-81
2021/11/05 05:12:46;;;;;;;102.50;27.20;;;;;;;9.20;85.32;100150.00;4969693;28;20492;-79
2021/11/05 05:15:13;;;;;;;87.32;26.48;;;;;;;9.23;85.00;100152.44;4973635;28;20054;-77
2021/11/05 05:17:39;;;;;;;101.47;28.08;;;;;;;9.25;84.92;100152.34;4958122;28;20101;-79
2021/11/05 05:20:08;;;;;;;91.00;26.67;;;;;;;9.22;84.85;100151.59;4972489;28;20042;-80
2021/11/05 05:22:35;;;;;;;94.35;27.58;;;;;;;9.27;84.71;100153.09;4972631;28;20038;-78
2021/11/05 05:25:03;;;;;;;92.07;27.42;;;;;;;9.22;84.47;100148.97;4976626;28;20054;-80
2021/11/05 05:27:29;;;;;;;88.97;25.75;;;;;;;9.26;84.42;100138.19;4959342;28;20042;-81
2021/11/05 05:29:58;;;;;;;98.45;27.80;;;;;;;9.28;84.35;100129.22;4944443;28;20042;-78
2021/11/05 05:32:24;;;;;;;94.18;26.98;;;;;;;9.31;84.28;100138.75;4956066;29;20456;-77
2021/11/05 05:34:50;;;;;;;89.90;26.63;;;;;;;9.28;83.88;100121.31;4974083;28;20182;-77
2021/11/05 05:37:16;;;;;;;86.40;25.30;;;;;;;9.31;83.91;100128.19;4921625;29;20540;-77
2021/11/05 05:39:42;;;;;;;85.40;26.13;;;;;;;9.35;83.67;100119.97;4938757;29;20051;-77
2021/11/05 05:42:08;;;;;;;95.03;29.90;;;;;;;9.34;83.70;100122.72;4944211;28;20078;-80
2021/11/05 05:44:34;;;;;;;89.65;25.30;;;;;;;9.43;83.63;100123.91;4977092;28;20574;-81
2021/11/05 05:47:01;;;;;;;86.75;26.33;;;;;;;9.42;83.37;100120.44;4976131;28;20047;-82
2021/11/05 05:49:27;;;;;;;89.47;27.17;;;;;;;9.37;83.31;100120.72;4975994;28;20046;-78
2021/11/05 05:51:53;;;;;;;87.57;24.55;;;;;;;9.46;83.09;100126.34;4975938;28;20526;-81
2021/11/05 05:54:22;;;;;;;94.32;26.30;;;;;;;9.43;83.34;100134.47;4977162;28;20046;-81
2021/11/05 05:56:47;;;;;;;91.70;27.88;;;;;;;9.45;82.94;100125.50;4975700;28;20054;-77
2021/11/05 05:59:13;;;;;;;89.80;27.10;;;;;;;9.44;82.80;100118.53;4976676;28;20047;-81
2021/11/05 06:01:39;;;;;;;95.65;27.80;;;;;;;9.47;82.92;100113.06;4976222;28;20569;-81
2021/11/05 06:04:05;;;;;;;90.32;28.35;;;;;;;9.53;82.68;100107.38;4976506;28;20315;-80
2021/11/05 06:06:31;;;;;;;84.00;26.77;;;;;;;9.54;82.43;100102.94;4975709;28;20394;-75
2021/11/05 06:08:57;;;;;;;87.47;25.90;;;;;;;9.60;82.29;100099.88;4958386;28;20043;-80
2021/11/05 06:11:24;;;;;;;116.68;36.38;;;;;;;9.57;82.16;100112.44;4961210;28;20046;-79
2021/11/05 06:13:51;;;;;;;84.65;25.95;;;;;;;9.58;82.11;100103.59;4960173;28;20043;-77
2021/11/05 06:16:17;;;;;;;87.00;26.50;;;;;;;9.49;82.06;100105.88;4960081;28;20046;-80
2021/11/05 06:18:44;;;;;;;173.18;54.65;;;;;;;9.51;82.30;100116.34;4942271;28;20058;-76
2021/11/05 06:21:09;;;;;;;103.78;29.98;;;;;;;9.52;82.15;100108.31;4957100;29;20051;-77
2021/11/05 06:23:36;;;;;;;85.97;25.42;;;;;;;9.55;81.97;100120.47;4924186;29;20040;-77
2021/11/05 06:26:01;;;;;;;86.72;24.75;;;;;;;9.51;81.89;100125.09;4956612;28;20058;-79
2021/11/05 06:28:27;;;;;;;82.78;25.40;;;;;;;9.60;81.59;100134.22;4956538;28;20051;-78
2021/11/05 06:30:53;;;;;;;82.35;23.80;;;;;;;9.58;81.18;100122.06;4956848;29;20043;-80
2021/11/05 06:33:19;;;;;;;78.15;24.50;;;;;;;9.60;81.08;100125.47;4939735;29;20192;-78
2021/11/05 06:35:46;;;;;;;76.40;24.13;;;;;;;9.66;80.75;100119.78;4972982;28;20105;-78
2021/11/05 06:38:13;;;;;;;78.90;24.83;;;;;;;9.65;80.72;100120.72;4935907;29;20071;-78
2021/11/05 06:40:40;;;;;;;78.25;25.15;;;;;;;9.67;80.78;100126.72;4959574;28;20049;-82
2021/11/05 06:43:06;;;;;;;127.00;39.28;;;;;;;9.75;80.25;100129.72;4975826;28;20404;-79
2021/11/05 06:45:32;;;;;;;80.75;25.80;;;;;;;9.64;80.32;100127.78;4975309;28;20042;-79
2021/11/05 06:47:58;;;;;;;80.90;25.80;;;;;;;9.62;80.53;100105.06;4942346;28;20054;-77
2021/11/05 06:50:24;;;;;;;85.30;25.95;;;;;;;9.68;80.38;100109.94;4960459;28;20047;-81
2021/11/05 06:52:50;;;;;;;76.88;23.63;;;;;;;9.68;80.36;100102.00;4940184;29;20102;-82
2021/11/05 06:55:16;;;;;;;85.50;27.30;;;;;;;9.67;80.70;100109.09;4925665;29;20040;-80
2021/11/05 06:57:42;;;;;;;73.63;24.05;;;;;;;9.62;80.13;100110.34;4929720;29;20070;-82
2021/11/05 07:00:10;;;;;;;82.30;25.63;;;;;;;9.63;80.09;100119.97;4943097;29;20054;-82
2021/11/05 07:02:41;;;;;;;80.03;25.63;;;;;;;9.63;80.51;100106.75;4928023;28;20038;-81
2021/11/05 07:05:12;;;;;;;70.18;23.70;;;;;;;9.62;80.20;100105.94;4944424;28;20045;-81
2021/11/05 07:07:38;;;;;;;73.88;23.30;;;;;;;9.67;80.11;100103.81;4943646;28;20141;-78
2021/11/05 07:10:05;;;;;;;78.68;25.17;;;;;;;9.61;80.18;100104.22;4943717;28;20138;-79
2021/11/05 07:12:31;;;;;;;83.50;26.17;;;;;;;9.63;80.16;100089.13;4946606;28;20137;-85
2021/11/05 07:14:57;;;;;;;75.00;21.95;;;;;;;9.61;80.10;100098.06;4956792;28;20035;-79
2021/11/05 07:17:23;;;;;;;71.80;24.20;;;;;;;9.63;79.93;100096.19;4944993;28;20420;-80
2021/11/05 07:19:49;;;;;;;86.95;26.17;;;;;;;9.67;79.68;100081.81;4926793;29;20047;-84
2021/11/05 07:22:15;;;;;;;75.78;24.33;;;;;;;9.73;80.04;100091.97;4943119;28;20051;-82
2021/11/05 07:24:41;;;;;;;81.38;26.55;;;;;;;9.70;79.65;100093.03;4958667;29;20059;-81
2021/11/05 07:27:07;;;;;;;73.00;25.40;;;;;;;9.75;79.71;100090.09;4942782;29;20047;-79
2021/11/05 07:29:33;;;;;;;71.57;24.10;;;;;;;9.76;79.38;100080.38;4961026;29;20035;-84
2021/11/05 07:32:03;;;;;;;78.68;24.90;;;;;;;9.80;79.32;100077.41;4924882;29;20039;-82
2021/11/05 07:34:32;;;;;;;70.10;24.30;;;;;;;9.90;79.06;100066.25;4909697;29;20047;-81
2021/11/05 07:36:59;;;;;;;81.82;26.00;;;;;;;9.87;78.73;100062.84;4891362;29;20040;-84
2021/11/05 07:39:26;;;;;;;110.22;35.17;;;;;;;9.82;78.82;100054.41;4920222;29;20048;-83
2021/11/05 07:41:51;;;;;;;78.97;26.13;;;;;;;9.85;79.03;100055.97;4931397;29;20052;-84
2021/11/05 07:44:18;;;;;;;83.30;25.88;;;;;;;9.85;79.13;100063.91;4919723;29;20489;-83
2021/11/05 07:46:46;;;;;;;77.95;26.23;;;;;;;9.79;78.76;100054.59;4920519;29;20047;-80
2021/11/05 07:49:12;;;;;;;69.20;22.75;;;;;;;9.87;78.88;100060.22;4903360;29;20255;-84
2021/11/05 07:51:38;;;;;;;79.75;24.23;;;;;;;9.91;78.81;100052.09;4921060;29;20063;-82
2021/11/05 07:54:10;;;;;;;73.93;25.15;;;;;;;9.84;78.32;100052.50;4919368;29;20044;-82
2021/11/05 07:56:36;;;;;;;72.35;23.10;;;;;;;9.82;77.97;100054.41;4934770;29;20067;-83
2021/11/05 07:59:04;;;;;;;65.72;22.00;;;;;;;9.84;77.26;100043.72;4931499;29;20039;-79
2021/11/05 08:01:30;;;;;;;71.50;23.20;;;;;;;9.88;77.41;100043.41;4918837;29;20039;-82
2021/11/05 08:03:57;;;;;;;66.53;23.93;;;;;;;9.87;77.03;100035.59;4928020;29;20039;-87
2021/11/05 08:06:23;;;;;;;74.20;24.58;;;;;;;9.87;76.92;100036.44;4897227;29;20450;-84
2021/11/05 08:08:49;;;;;;;70.90;25.30;;;;;;;9.90;76.94;100031.91;4948349;29;20094;-78
2021/11/05 08:11:15;;;;;;;69.95;22.48;;;;;;;9.92;76.87;100043.19;4955613;29;20043;-78
2021/11/05 08:13:44;;;;;;;59.40;24.05;;;;;;;9.91;76.64;100033.59;4957103;28;20130;-83
2021/11/05 08:16:09;;;;;;;;;;;;;;;9.88;77.04;100027.56;4938164;29;20051;-82
2021/11/05 08:18:35;;;;;;;66.18;22.42;;;;;;;9.88;76.80;100022.28;4953359;28;20419;-84
2021/11/05 08:21:01;;;;;;;69.45;22.98;;;;;;;9.94;76.70;100026.28;4957795;28;20093;-82
2021/11/05 08:23:27;;;;;;;97.38;33.05;;;;;;;10.04;76.75;100037.94;4939290;29;20046;-83
2021/11/05 08:25:53;;;;;;;72.15;24.10;;;;;;;10.06;76.84;100031.69;4938833;29;20058;-77
2021/11/05 08:28:23;;;;;;;71.22;22.65;;;;;;;10.04;76.68;100026.50;4930538;29;20094;-87
2021/11/05 08:30:50;;;;;;;69.68;24.58;;;;;;;9.95;76.92;100027.16;4941899;29;20061;-83
2021/11/05 08:33:21;;;;;;;69.72;23.63;;;;;;;9.91;77.26;100010.66;4927119;29;20496;-78
2021/11/05 08:35:52;;;;;;;75.25;24.23;;;;;;;9.93;77.58;100007.91;4921063;29;20454;-81
2021/11/05 08:38:25;;;;;;;70.43;23.02;;;;;;;9.96;77.15;100019.09;4920230;29;20131;-83
2021/11/05 08:40:53;;;;;;;70.13;23.85;;;;;;;9.99;77.35;100018.91;4916580;29;20040;-82
2021/11/05 08:43:24;;;;;;;62.58;21.83;;;;;;;9.98;76.94;100011.06;4900610;29;20449;-86
2021/11/05 08:45:57;;;;;;;67.43;23.70;;;;;;;9.90;76.88;100019.53;4938572;29;20110;-84
2021/11/05 08:48:24;;;;;;;75.28;25.63;;;;;;;9.92;76.67;100006.19;4894065;29;20052;-82
2021/11/05 08:50:52;;;;;;;79.85;26.17;;;;;;;10.01;76.63;99998.50;4916685;29;20052;-83
2021/11/05 08:53:21;;;;;;;152.68;63.55;;;;;;;9.99;76.40;100002.19;4883935;29;20135;-81
2021/11/05 08:56:05;;;;;;;72.15;22.45;;;;;;;9.98;76.68;100006.66;4916840;29;20047;-83
2021/11/05 08:58:32;;;;;;;70.60;22.73;;;;;;;10.06;76.40;99998.16;4915122;29;20469;-82
2021/11/05 09:00:58;;;;;;;67.95;23.05;;;;;;;10.00;76.31;100011.81;4886886;29;20092;-78
2021/11/05 09:03:24;;;;;;;65.97;22.73;;;;;;;10.04;76.53;100002.72;4899401;29;20091;-84
2021/11/05 09:05:50;;;;;;;73.50;21.33;;;;;;;10.04;76.20;99989.50;4871504;29;20068;-82
2021/11/05 09:08:21;;;;;;;65.50;21.90;;;;;;;10.16;76.07;100001.84;4886898;29;20064;-80
2021/11/05 09:10:47;;;;;;;61.70;22.98;;;;;;;10.20;75.82;99995.41;4888143;29;20040;-82
2021/11/05 09:13:14;;;;;;;74.15;22.35;;;;;;;10.17;75.68;99987.69;4871421;29;20132;-83
2021/11/05 09:15:41;;;;;;;70.43;22.80;;;;;;;10.22;75.70;99983.88;4884369;29;20045;-79
2021/11/05 09:18:09;;;;;;;68.93;22.17;;;;;;;10.21;75.69;99983.03;4905338;29;20822;-80
2021/11/05 09:20:36;;;;;;;64.30;21.83;;;;;;;10.24;75.58;99985.44;4914835;29;20036;-83
2021/11/05 09:23:02;;;;;;;63.15;21.55;;;;;;;10.30;75.08;99989.47;4912743;29;20056;-82
2021/11/05 09:25:29;;;;;;;63.15;22.20;;;;;;;10.26;75.25;99985.38;4871698;29;20060;-80
2021/11/05 09:27:55;;;;;;;77.38;22.17;;;;;;;10.24;75.55;99971.41;4920030;29;20473;-83
2021/11/05 09:30:24;;;;;;;176.30;64.10;;;;;;;10.23;75.15;99983.78;4921582;29;20040;-81
2021/11/05 09:32:53;;;;;;;68.45;22.83;;;;;;;10.15;75.50;99972.91;4937895;29;20075;-77
2021/11/05 09:35:20;;;;;;;64.35;21.88;;;;;;;10.09;75.57;99966.22;4921698;29;20131;-80
2021/11/05 09:37:50;;;;;;;71.68;22.30;;;;;;;10.17;75.53;99971.84;4906249;29;20548;-82
2021/11/05 09:40:18;;;;;;;60.92;20.50;;;;;;;10.23;75.56;99961.78;4905836;29;20151;-83
2021/11/05 09:42:47;;;;;;;61.78;22.02;;;;;;;10.25;75.61;99959.88;4938988;29;20414;-79
2021/11/05 09:45:14;;;;;;;62.70;20.23;;;;;;;10.25;75.53;99955.41;4917825;29;20043;-84
2021/11/05 09:47:42;;;;;;;61.35;20.25;;;;;;;10.29;75.84;99961.34;4900200;29;20043;-83
2021/11/05 09:50:09;;;;;;;60.75;21.27;;;;;;;10.26;75.63;99957.13;4924109;29;20556;-80
2021/11/05 09:52:35;;;;;;;64.13;21.50;;;;;;;10.34;75.94;99957.44;4923114;29;20035;-83
2021/11/05 09:55:03;;;;;;;65.00;22.33;;;;;;;10.38;75.61;99952.78;4907419;29;20059;-80
2021/11/05 09:57:29;;;;;;;59.60;20.92;;;;;;;10.41;75.71;99949.91;4936513;28;20048;-81
2021/11/05 09:59:58;;;;;;;60.17;20.83;;;;;;;10.40;75.73;99942.09;4920091;29;20066;-80
2021/11/05 10:02:50;;;;;;;62.33;22.13;;;;;;;10.43;75.29;99939.22;4948898;29;20043;-79
2021/11/05 10:05:35;;;;;;;70.82;23.10;;;;;;;10.37;75.26;99924.66;4957284;29;20058;-78
2021/11/05 10:08:03;;;;;;;63.60;22.92;;;;;;;10.29;75.56;99922.56;4904975;29;20513;-77
2021/11/05 10:10:39;;;;;;;70.53;22.30;;;;;;;10.38;75.55;99918.44;4922686;29;20094;-84
2021/11/05 10:13:11;;;;;;;70.25;23.27;;;;;;;10.48;75.41;99908.84;4898872;29;20104;-79
2021/11/05 10:15:42;;;;;;;68.13;21.52;;;;;;;10.46;74.98;99900.19;4917232;29;20044;-77
2021/11/05 10:18:12;;;;;;;66.97;23.75;;;;;;;10.48;75.32;99906.22;4947787;28;20054;-79
2021/11/05 10:20:38;;;;;;;73.82;24.63;;;;;;;10.47;75.22;99891.31;4933276;29;20567;-81
2021/11/05 10:23:06;;;;;;;76.43;23.13;;;;;;;10.44;75.56;99896.81;4918779;29;20049;-81
2021/11/05 10:25:48;;;;;;;70.70;23.67;;;;;;;10.49;75.15;99891.19;4946662;28;20425;-77
2021/11/05 10:28:25;;;;;;;71.03;24.40;;;;;;;10.54;75.22;99880.28;4940018;28;20043;-81
2021/11/05 10:31:05;;;;;;;133.15;47.67;;;;;;;10.49;75.64;99873.53;4953668;28;20256;-74
2021/11/05 10:33:35;;;;;;;70.90;24.73;;;;;;;10.47;75.50;99864.03;4937317;28;20043;-77
2021/11/05 10:36:04;;;;;;;81.43;25.90;;;;;;;10.47;76.14;99870.16;4941201;28;20534;-80
2021/11/05 10:38:32;;;;;;;77.97;25.45;;;;;;;10.42;76.04;99872.28;4969787;28;20065;-80
2021/11/05 10:41:00;;;;;;;70.97;24.80;;;;;;;10.43;76.65;99863.41;4925241;28;20053;-82
2021/11/05 10:43:40;;;;;;;76.10;25.08;;;;;;;10.50;76.31;99867.28;4936901;28;20042;-78
2021/11/05 10:46:09;;;;;;;75.63;25.33;;;;;;;10.50;76.36;99854.06;4945118;28;20073;-82
2021/11/05 10:48:37;;;;;;;76.00;24.70;;;;;;;10.55;76.73;99844.94;4941511;28;20520;-79
2021/11/05 10:51:06;;;;;;;73.55;24.95;;;;;;;10.63;76.40;99839.91;4934925;28;20074;-85
2021/11/05 10:53:40;;;;;;;82.70;25.55;;;;;;;10.57;76.11;99845.69;4937951;28;20484;-85
2021/11/05 10:56:09;;;;;;;77.80;27.17;;;;;;;10.61;76.35;99831.25;4938149;29;20043;-79
2021/11/05 10:58:38;;;;;;;77.57;25.15;;;;;;;10.55;76.46;99837.00;4954458;28;20403;-82
2021/11/05 11:01:14;;;;;;;76.53;25.30;;;;;;;10.55;76.92;99842.28;4927821;28;20496;-78
2021/11/05 11:03:49;;;;;;;74.43;23.58;;;;;;;10.66;76.62;99837.03;4951746;28;20134;-76
2021/11/05 11:06:18;;;;;;;81.40;25.65;;;;;;;10.68;76.42;99833.31;4967023;28;21485;-79
2021/11/05 11:08:46;;;;;;;81.60;25.50;;;;;;;10.70;76.45;99827.91;4970279;28;20050;-80
2021/11/05 11:11:27;;;;;;;91.47;30.33;;;;;;;10.76;76.67;99831.91;4963426;28;20043;-82
2021/11/05 11:13:58;;;;;;;85.57;29.77;;;;;;;10.75;76.63;99828.41;4927397;28;20039;-78
2021/11/05 11:16:30;;;;;;;86.28;26.17;;;;;;;10.86;76.42;99826.78;4937561;29;20054;-78
2021/11/05 11:18:57;;;;;;;80.03;25.17;;;;;;;10.84;76.50;99829.50;4956102;28;20051;-79